createdAt,value
2023-01-13T00:02:24.580Z,99946.12
2023-01-13T00:04:55.221Z,99951.98
2023-01-13T00:07:25.721Z,99946.21
2023-01-13T00:09:56.464Z,99950.09
2023-01-13T00:12:26.918Z,99943.47
2023-01-13T00:14:57.505Z,99944.95
2023-01-13T00:17:28.081Z,99938.32
2023-01-13T00:19:58.771Z,99948.22
2023-01-13T00:22:29.257Z,99951.36
2023-01-13T00:24:59.866Z,99954.78
2023-01-13T00:27:30.457Z,99950.12
2023-01-13T00:30:01.039Z,99950.26
2023-01-13T00:32:31.619Z,99950.44
2023-01-13T00:35:02.256Z,99951.46
2023-01-13T00:37:32.809Z,99946.36
2023-01-13T00:40:03.394Z,99942.22
2023-01-13T00:42:33.982Z,99939.81
2023-01-13T00:45:04.572Z,99942.20
2023-01-13T00:47:35.147Z,99930.09
2023-01-13T00:50:05.821Z,99935.93
2023-01-13T00:52:36.354Z,99919.12
2023-01-13T00:55:06.990Z,99926.62
2023-01-13T00:57:37.536Z,99921.50
2023-01-13T01:00:08.267Z,99926.32
2023-01-13T01:02:38.826Z,99925.84
2023-01-13T01:05:09.358Z,99933.90
2023-01-13T01:07:39.929Z,99931.42
2023-01-13T01:10:10.549Z,99930.79
2023-01-13T01:12:41.128Z,99922.84
2023-01-13T01:15:11.777Z,99930.22
2023-01-13T01:17:42.348Z,99926.02
2023-01-13T01:20:12.992Z,99928.10
2023-01-13T01:22:43.555Z,99925.72
2023-01-13T01:25:14.183Z,99927.43
2023-01-13T01:27:44.487Z,99929.94
2023-01-13T01:30:15.256Z,99937.46
2023-01-13T01:32:45.707Z,99943.96
2023-01-13T01:35:16.389Z,99939.55
2023-01-13T01:37:46.659Z,99945.22
2023-01-13T01:40:17.273Z,99947.11
2023-01-13T01:42:47.866Z,99956.13
2023-01-13T01:45:18.138Z,99963.08
2023-01-13T01:47:48.711Z,99963.90
2023-01-13T01:50:19.355Z,99966.92
2023-01-13T01:52:49.925Z,99969.01
2023-01-13T01:55:20.580Z,99963.82
2023-01-13T01:57:51.148Z,99967.97
2023-01-13T02:00:21.488Z,99963.82
2023-01-13T02:02:52.107Z,99968.49
2023-01-13T02:05:22.742Z,99972.51
2023-01-13T02:07:53.329Z,99969.52
2023-01-13T02:10:23.999Z,99969.60
2023-01-13T02:12:54.575Z,99964.81
2023-01-13T02:15:25.213Z,99967.39
2023-01-13T02:17:55.839Z,99962.79
2023-01-13T02:20:26.464Z,99961.57
2023-01-13T02:22:56.780Z,99967.69
2023-01-13T02:25:27.424Z,99962.55
2023-01-13T02:27:58.124Z,99964.52
2023-01-13T02:30:28.789Z,99965.95
2023-01-13T02:32:59.280Z,99963.46
2023-01-13T02:35:29.908Z,99965.22
2023-01-13T02:38:00.567Z,99962.89
2023-01-13T02:40:31.214Z,99959.41
2023-01-13T02:43:01.798Z,99946.70
2023-01-13T02:45:32.488Z,99941.62
2023-01-13T02:48:03.086Z,99938.80
2023-01-13T02:50:33.350Z,99931.81
2023-01-13T02:53:03.690Z,99924.75
2023-01-13T02:55:34.386Z,99922.96
2023-01-13T02:58:04.703Z,99924.20
2023-01-13T03:00:35.244Z,99926.45
2023-01-13T03:03:05.873Z,99924.71
2023-01-13T03:05:36.564Z,99923.28
2023-01-13T03:08:07.172Z,99914.99
2023-01-13T03:10:37.880Z,99918.47
2023-01-13T03:13:08.481Z,99922.32
2023-01-13T03:15:39.132Z,99922.92
2023-01-13T03:18:09.784Z,99922.06
2023-01-13T03:20:40.431Z,99922.68
2023-01-13T03:23:11.202Z,99924.54
2023-01-13T03:25:41.129Z,99920.48
2023-01-13T03:28:11.747Z,99926.84
2023-01-13T03:30:42.417Z,99926.17
2023-01-13T03:33:12.996Z,99921.08
2023-01-13T03:35:43.661Z,99920.96
2023-01-13T03:38:14.291Z,99912.45
2023-01-13T03:40:44.979Z,99910.58
2023-01-13T03:43:15.592Z,99912.10
2023-01-13T03:45:46.304Z,99903.87
2023-01-13T03:48:16.907Z,99906.95
2023-01-13T03:50:47.625Z,99901.13
2023-01-13T03:53:18.228Z,99901.57
2023-01-13T03:55:48.910Z,99900.01
2023-01-13T03:58:19.594Z,99910.90
2023-01-13T04:00:50.143Z,99906.79
2023-01-13T04:03:20.493Z,99915.81
2023-01-13T04:05:51.146Z,99911.69
2023-01-13T04:08:21.744Z,99905.29
2023-01-13T04:10:52.387Z,99907.48
2023-01-13T04:13:22.993Z,99910.49
2023-01-13T04:15:53.697Z,99906.25
2023-01-13T04:18:24.269Z,99903.05
2023-01-13T04:20:54.902Z,99909.68
2023-01-13T04:23:25.510Z,99905.78
2023-01-13T04:25:55.913Z,99907.83
2023-01-13T04:28:26.480Z,99904.93
2023-01-13T04:30:57.449Z,99905.94
2023-01-13T04:33:27.937Z,99903.03
2023-01-13T04:35:58.575Z,99899.42
2023-01-13T04:38:29.181Z,99895.23
2023-01-13T04:40:59.569Z,99890.11
2023-01-13T04:43:29.884Z,99891.11
2023-01-13T04:46:00.591Z,99890.79
2023-01-13T04:48:31.151Z,99894.74
2023-01-13T04:51:01.826Z,99887.02
2023-01-13T04:53:32.446Z,99876.79
2023-01-13T04:56:03.146Z,99882.74
2023-01-13T04:58:33.728Z,99882.34
2023-01-13T05:01:04.401Z,99871.97
2023-01-13T05:03:35.005Z,99868.80
2023-01-13T05:06:05.677Z,99861.14
2023-01-13T05:08:36.291Z,99852.55
2023-01-13T05:11:06.623Z,99868.49
2023-01-13T05:13:37.237Z,99855.89
2023-01-13T05:16:10.533Z,99864.36
2023-01-13T05:18:38.533Z,99866.86
2023-01-13T05:21:09.210Z,99863.18
2023-01-13T05:23:39.838Z,99861.52
2023-01-13T05:26:10.527Z,99857.48
2023-01-13T05:28:41.116Z,99855.06
2023-01-13T05:31:11.874Z,99851.39
2023-01-13T05:33:42.393Z,99854.69
2023-01-13T05:36:12.760Z,99857.05
2023-01-13T05:38:43.392Z,99865.98
2023-01-13T05:41:14.279Z,99866.55
2023-01-13T05:43:44.375Z,99862.69
2023-01-13T05:46:14.881Z,99865.32
2023-01-13T05:48:45.293Z,99868.62
2023-01-13T05:51:15.722Z,99864.74
2023-01-13T05:53:46.313Z,99868.57
2023-01-13T05:56:16.991Z,99868.99
2023-01-13T05:58:48.061Z,99871.23
2023-01-13T06:01:18.010Z,99873.94
2023-01-13T06:03:48.609Z,99870.18
2023-01-13T06:06:19.277Z,99876.39
2023-01-13T06:08:49.916Z,99877.09
2023-01-13T06:11:20.247Z,99881.02
2023-01-13T06:13:50.882Z,99881.73
2023-01-13T06:16:21.598Z,99874.43
2023-01-13T06:18:52.166Z,99876.71
2023-01-13T06:21:22.833Z,99876.70
2023-01-13T06:23:53.473Z,99880.43
2023-01-13T06:26:24.242Z,99888.45
2023-01-13T06:28:54.781Z,99879.67
2023-01-13T06:31:25.546Z,99893.22
2023-01-13T06:33:56.087Z,99903.84
2023-01-13T06:36:26.763Z,99904.33
2023-01-13T06:38:57.413Z,99899.74
2023-01-13T06:41:28.018Z,99901.66
2023-01-13T06:43:58.651Z,99898.10
2023-01-13T06:46:29.494Z,99894.02
2023-01-13T06:48:59.917Z,99900.28
2023-01-13T06:51:30.566Z,99899.97
2023-01-13T06:54:01.182Z,99901.26
2023-01-13T06:56:31.849Z,99902.39
2023-01-13T06:59:02.262Z,99899.06
2023-01-13T07:01:33.004Z,99899.60
2023-01-13T07:04:03.451Z,99903.83
2023-01-13T07:06:34.096Z,99902.12
2023-01-13T07:09:06.759Z,99904.99
2023-01-13T07:11:35.392Z,99908.77
2023-01-13T07:14:06.057Z,99908.82
2023-01-13T07:16:36.694Z,99901.13
2023-01-13T07:19:07.285Z,99907.94
2023-01-13T07:21:37.935Z,99908.32
2023-01-13T07:24:08.681Z,99908.55
2023-01-13T07:26:39.234Z,99912.13
2023-01-13T07:29:09.850Z,99918.15
2023-01-13T07:31:40.567Z,99908.09
2023-01-13T07:34:11.118Z,99914.10
2023-01-13T07:36:41.768Z,99905.04
2023-01-13T07:39:12.395Z,99904.31
2023-01-13T07:41:43.054Z,99913.77
2023-01-13T07:44:13.662Z,99899.35
2023-01-13T07:46:44.310Z,99900.62
2023-01-13T07:49:14.927Z,99895.93
2023-01-13T07:51:45.556Z,99909.44
2023-01-13T07:54:16.181Z,99906.12
2023-01-13T07:56:46.904Z,99911.40
2023-01-13T07:59:17.434Z,99920.79
2023-01-13T08:01:48.183Z,99911.07
2023-01-13T08:04:18.681Z,99901.31
2023-01-13T08:06:49.316Z,99896.47
2023-01-13T08:09:19.953Z,99897.37
2023-01-13T08:11:50.588Z,99891.54
2023-01-13T08:14:21.184Z,99892.74
2023-01-13T08:16:51.920Z,99894.72
2023-01-13T08:19:22.438Z,99895.62
2023-01-13T08:21:53.104Z,99905.25
2023-01-13T08:24:23.717Z,99908.49
2023-01-13T08:26:54.346Z,99905.50
2023-01-13T08:29:24.970Z,99916.98
2023-01-13T08:31:55.636Z,99919.54
2023-01-13T08:34:26.267Z,99912.75
2023-01-13T08:36:56.920Z,99920.32
2023-01-13T08:39:27.524Z,99919.62
2023-01-13T08:41:58.201Z,99927.77
2023-01-13T08:44:28.832Z,99922.60
2023-01-13T08:46:59.475Z,99915.06
2023-01-13T08:49:30.084Z,99915.78
2023-01-13T08:52:00.726Z,99920.64
2023-01-13T08:54:31.320Z,99923.76
2023-01-13T08:57:02.056Z,99918.19
2023-01-13T08:59:32.558Z,99918.23
2023-01-13T09:02:03.392Z,99923.17
2023-01-13T09:04:33.837Z,99926.47
2023-01-13T09:07:04.411Z,99929.84
2023-01-13T09:09:34.832Z,99934.39
2023-01-13T09:12:05.044Z,99934.12
2023-01-13T09:14:35.632Z,99934.96
2023-01-13T09:17:06.291Z,99947.13
2023-01-13T09:19:36.617Z,99945.25
2023-01-13T09:22:07.438Z,99959.34
2023-01-13T09:24:37.567Z,99962.60
2023-01-13T09:27:08.208Z,99969.39
2023-01-13T09:29:38.809Z,99972.24
2023-01-13T09:32:09.664Z,99985.92
2023-01-13T09:34:40.273Z,99985.42
2023-01-13T09:37:10.899Z,99998.71
2023-01-13T09:39:41.500Z,99995.00
2023-01-13T09:42:12.157Z,99994.75
2023-01-13T09:44:42.784Z,99994.19
2023-01-13T09:47:14.230Z,99986.80
2023-01-13T09:49:44.011Z,99998.58
2023-01-13T09:52:14.691Z,100005.85
2023-01-13T09:54:45.280Z,99999.18
2023-01-13T09:57:15.953Z,100013.10
2023-01-13T09:59:46.546Z,100019.11
2023-01-13T10:02:17.193Z,100005.05
2023-01-13T10:04:47.917Z,100006.09
2023-01-13T10:07:18.899Z,100008.30
2023-01-13T10:09:49.067Z,100012.46
2023-01-13T10:12:19.720Z,100015.17
2023-01-13T10:14:50.311Z,100009.09
2023-01-13T10:17:20.956Z,100007.50
2023-01-13T10:19:51.546Z,100006.35
2023-01-13T10:22:21.939Z,100011.25
2023-01-13T10:24:52.717Z,100004.62
2023-01-13T10:27:23.040Z,100010.45
2023-01-13T10:29:53.487Z,100007.02
2023-01-13T10:32:23.785Z,100009.36
2023-01-13T10:34:54.446Z,100009.87
2023-01-13T10:37:25.017Z,100019.57
2023-01-13T10:39:55.621Z,100020.94
2023-01-13T10:42:26.284Z,100015.66
2023-01-13T10:44:56.981Z,100021.15
2023-01-13T10:47:27.527Z,100019.81
2023-01-13T10:49:58.117Z,100036.08
2023-01-13T10:52:28.847Z,100030.23
2023-01-13T10:54:59.369Z,100026.86
2023-01-13T10:57:30.013Z,100039.46
2023-01-13T11:00:00.596Z,100042.23
2023-01-13T11:02:31.311Z,100047.16
2023-01-13T11:05:01.530Z,100046.17
2023-01-13T11:07:32.221Z,100053.45
2023-01-13T11:10:02.793Z,100051.64
2023-01-13T11:12:33.430Z,100063.91
2023-01-13T11:15:04.110Z,100052.68
2023-01-13T11:17:34.666Z,100061.10
2023-01-13T11:20:05.279Z,100060.23
2023-01-13T11:22:36.028Z,100072.64
2023-01-13T11:25:06.207Z,100063.19
2023-01-13T11:27:36.869Z,100067.66
2023-01-13T11:30:07.439Z,100063.53
2023-01-13T11:32:38.090Z,100074.46
2023-01-13T11:35:08.678Z,100073.66
2023-01-13T11:37:39.308Z,100079.44
2023-01-13T11:40:09.907Z,100078.24
2023-01-13T11:42:40.561Z,100072.79
2023-01-13T11:45:11.143Z,100078.43
2023-01-13T11:47:41.825Z,100080.12
2023-01-13T11:50:12.420Z,100088.78
2023-01-13T11:52:43.030Z,100087.76
2023-01-13T11:55:13.608Z,100087.54
2023-01-13T11:57:44.275Z,100077.35
2023-01-13T12:00:14.877Z,100079.47
2023-01-13T12:02:45.477Z,100069.70
2023-01-13T12:05:16.077Z,100079.28
2023-01-13T12:07:46.709Z,100082.54
2023-01-13T12:10:17.279Z,100092.92
2023-01-13T12:12:47.923Z,100081.64
2023-01-13T12:15:18.509Z,100089.93
2023-01-13T12:17:49.125Z,100083.35
2023-01-13T12:20:19.739Z,100087.88
2023-01-13T12:22:50.372Z,100097.82
2023-01-13T12:25:21.002Z,100082.35
2023-01-13T12:27:51.626Z,100089.78
2023-01-13T12:30:22.278Z,100086.57
2023-01-13T12:32:52.875Z,100098.84
2023-01-13T12:35:23.417Z,100103.90
2023-01-13T12:37:54.180Z,100099.15
2023-01-13T12:40:24.655Z,100097.74
2023-01-13T12:42:55.445Z,100107.38
2023-01-13T12:45:25.924Z,100107.68
2023-01-13T12:47:56.527Z,100107.24
2023-01-13T12:50:27.126Z,100127.54
2023-01-13T12:52:57.744Z,100112.83
2023-01-13T12:55:28.344Z,100115.63
2023-01-13T12:57:59.008Z,100121.45
2023-01-13T13:00:29.587Z,100122.56
2023-01-13T13:02:59.907Z,100130.24
2023-01-13T13:05:30.456Z,100125.39
2023-01-13T13:08:01.092Z,100125.55
2023-01-13T13:10:31.701Z,100127.31
2023-01-13T13:13:02.093Z,100131.74
2023-01-13T13:15:32.699Z,100134.29
2023-01-13T13:18:03.285Z,100133.59
2023-01-13T13:20:33.874Z,100131.41
2023-01-13T13:23:04.505Z,100149.59
2023-01-13T13:25:35.168Z,100142.69
2023-01-13T13:28:05.747Z,100151.50
2023-01-13T13:30:36.136Z,100144.42
2023-01-13T13:33:06.658Z,100138.67
2023-01-13T13:35:37.251Z,100142.15
2023-01-13T13:38:07.909Z,100147.44
2023-01-13T13:40:38.478Z,100148.18
2023-01-13T13:43:09.288Z,100153.55
2023-01-13T13:45:40.278Z,100152.78
2023-01-13T13:48:10.365Z,100163.95
2023-01-13T13:50:40.480Z,100171.67
2023-01-13T13:53:11.269Z,100171.79
2023-01-13T13:55:41.938Z,100185.10
2023-01-13T13:58:12.570Z,100173.61
2023-01-13T14:00:43.116Z,100188.42
2023-01-13T14:03:13.838Z,100184.36
2023-01-13T14:05:44.448Z,100187.83
2023-01-13T14:08:14.735Z,100184.68
2023-01-13T14:10:45.496Z,100197.72
2023-01-13T14:13:15.941Z,100200.60
2023-01-13T14:15:46.568Z,100214.66
2023-01-13T14:18:17.109Z,100215.93
2023-01-13T14:20:47.722Z,100217.53
2023-01-13T14:23:18.353Z,100221.98
2023-01-13T14:25:48.930Z,100224.62
2023-01-13T14:28:19.588Z,100228.45
2023-01-13T14:30:50.235Z,100233.42
2023-01-13T14:33:20.773Z,100241.76
2023-01-13T14:35:51.351Z,100246.00
2023-01-13T14:38:21.964Z,100244.80
2023-01-13T14:40:52.562Z,100245.34
2023-01-13T14:43:23.251Z,100247.85
2023-01-13T14:45:53.783Z,100251.71
2023-01-13T14:48:24.453Z,100257.69
2023-01-13T14:50:54.985Z,100257.07
2023-01-13T14:53:25.608Z,100260.16
2023-01-13T14:55:56.202Z,100278.59
2023-01-13T14:58:26.856Z,100271.81
2023-01-13T15:00:57.489Z,100269.57
2023-01-13T15:03:28.044Z,100274.89
2023-01-13T15:05:58.640Z,100273.75
2023-01-13T15:08:29.355Z,100283.94
2023-01-13T15:11:00.084Z,100283.93
2023-01-13T15:13:30.626Z,100302.27
2023-01-13T15:16:01.139Z,100290.62
2023-01-13T15:18:31.936Z,100296.94
2023-01-13T15:21:02.028Z,100289.36
2023-01-13T15:23:32.708Z,100308.42
2023-01-13T15:26:03.243Z,100319.70
2023-01-13T15:28:33.533Z,100326.16
2023-01-13T15:31:04.208Z,100322.21
2023-01-13T15:33:34.752Z,100323.97
2023-01-13T15:36:05.311Z,100338.98
2023-01-13T15:38:35.948Z,100349.00
2023-01-13T15:41:06.534Z,100345.80
2023-01-13T15:43:37.249Z,100352.15
2023-01-13T15:46:07.785Z,100352.53
2023-01-13T15:48:38.109Z,100350.21
2023-01-13T15:51:08.664Z,100357.83
2023-01-13T15:53:39.411Z,100361.04
2023-01-13T15:56:10.027Z,100365.76
2023-01-13T15:58:40.505Z,100369.78
2023-01-13T16:01:11.322Z,100377.98
2023-01-13T16:03:41.508Z,100375.78
2023-01-13T16:06:12.102Z,100376.72
2023-01-13T16:08:42.683Z,100391.72
2023-01-13T16:11:12.921Z,100384.79
2023-01-13T16:13:43.284Z,100388.17
2023-01-13T16:16:13.900Z,100396.02
2023-01-13T16:18:44.470Z,100390.02
2023-01-13T16:21:15.074Z,100405.00
2023-01-13T16:23:45.705Z,100413.46
2023-01-13T16:26:15.999Z,100420.12
2023-01-13T16:28:46.746Z,100422.66
2023-01-13T16:31:17.283Z,100425.26
2023-01-13T16:33:47.860Z,100425.14
2023-01-13T16:36:18.465Z,100437.90
2023-01-13T16:38:49.119Z,100451.37
2023-01-13T16:41:19.695Z,100447.41
2023-01-13T16:43:50.353Z,100452.32
2023-01-13T16:46:20.922Z,100466.80
2023-01-13T16:48:51.709Z,100465.75
2023-01-13T16:51:22.138Z,100475.95
2023-01-13T16:56:28.526Z,100470.98
2023-01-13T16:58:53.998Z,100470.71
2023-01-13T17:01:24.683Z,100472.68
2023-01-13T17:03:55.164Z,100490.29
2023-01-13T17:06:25.771Z,100495.42
2023-01-13T17:08:56.362Z,100488.37
2023-01-13T17:11:32.099Z,100506.76
2023-01-13T17:16:28.826Z,100510.35
2023-01-13T17:18:58.761Z,100518.84
2023-01-13T17:21:29.530Z,100524.16
2023-01-13T17:23:59.955Z,100524.92
2023-01-13T17:26:30.599Z,100535.82
2023-01-13T17:29:01.178Z,100541.58
2023-01-13T17:31:31.636Z,100526.33
2023-01-13T17:34:02.034Z,100530.06
2023-01-13T17:36:32.626Z,100534.80
2023-01-13T17:39:03.220Z,100536.29
2023-01-13T17:41:33.828Z,100539.56
2023-01-13T17:44:04.504Z,100545.68
2023-01-13T17:46:35.040Z,100551.37
2023-01-13T17:49:05.609Z,100550.47
2023-01-13T17:51:36.213Z,100553.48
2023-01-13T17:54:06.809Z,100559.68
2023-01-13T17:56:37.422Z,100559.37
2023-01-13T17:59:10.091Z,100565.40
2023-01-13T18:01:38.900Z,100563.72
2023-01-13T18:04:09.340Z,100574.65
2023-01-13T18:06:40.396Z,100564.84
2023-01-13T18:11:41.799Z,100577.97
2023-01-13T18:14:11.282Z,100593.99
2023-01-13T18:16:41.934Z,100606.87
2023-01-13T18:19:12.458Z,100604.22
2023-01-13T18:21:43.076Z,100605.79
2023-01-13T18:24:13.396Z,100606.55
2023-01-13T18:26:43.987Z,100610.03
2023-01-13T18:29:14.592Z,100635.95
2023-01-13T18:31:45.395Z,100639.75
2023-01-13T18:34:15.867Z,100658.81
2023-01-13T18:36:46.507Z,100660.19
2023-01-13T18:39:17.136Z,100677.79
2023-01-13T18:41:47.790Z,100682.99
2023-01-13T18:44:18.113Z,100662.99
2023-01-13T18:46:48.762Z,100663.84
2023-01-13T18:49:19.499Z,100677.18
2023-01-13T18:51:50.053Z,100662.39
2023-01-13T18:54:20.758Z,100659.76
2023-01-13T18:56:51.332Z,100657.90
2023-01-13T18:59:21.967Z,100658.17
2023-01-13T19:01:52.745Z,100662.43
2023-01-13T19:04:23.285Z,100660.90
2023-01-13T19:06:53.965Z,100681.70
2023-01-13T19:09:24.492Z,100678.85
2023-01-13T19:11:54.990Z,100682.15
2023-01-13T19:14:25.617Z,100686.91
2023-01-13T19:16:56.290Z,100683.50
2023-01-13T19:19:26.922Z,100689.66
2023-01-13T19:21:57.578Z,100687.82
2023-01-13T19:24:28.332Z,100691.91
2023-01-13T19:26:59.288Z,100693.23
2023-01-13T19:32:00.334Z,100707.10
2023-01-13T19:34:30.845Z,100709.82
2023-01-13T19:37:01.531Z,100716.29
2023-01-13T19:39:32.230Z,100721.66
2023-01-13T19:42:02.834Z,100726.17
2023-01-13T19:44:33.472Z,100732.71
2023-01-13T19:47:04.137Z,100732.28
2023-01-13T19:49:34.784Z,100739.09
2023-01-13T19:52:05.457Z,100749.13
2023-01-13T19:54:36.107Z,100744.05
2023-01-13T19:57:06.769Z,100748.74
2023-01-13T19:59:37.498Z,100747.25
2023-01-13T20:02:08.126Z,100759.62
2023-01-13T20:04:38.716Z,100775.03
2023-01-13T20:07:09.125Z,100783.22
2023-01-13T20:09:39.744Z,100785.94
2023-01-13T20:12:10.425Z,100796.15
2023-01-13T20:14:41.164Z,100792.47
2023-01-13T20:17:11.767Z,100799.15
2023-01-13T20:19:42.417Z,100800.95
2023-01-13T20:22:13.087Z,100806.49
2023-01-13T20:24:43.803Z,100807.55
2023-01-13T20:27:14.067Z,100813.88
2023-01-13T20:29:44.669Z,100812.32
2023-01-13T20:32:15.366Z,100817.47
2023-01-13T20:34:45.988Z,100818.29
2023-01-13T20:37:16.663Z,100821.70
2023-01-13T20:39:47.400Z,100821.77
2023-01-13T20:42:18.032Z,100826.33
2023-01-13T20:44:48.647Z,100828.76
2023-01-13T20:47:19.251Z,100837.44
2023-01-13T20:49:49.870Z,100842.47
2023-01-13T20:52:20.538Z,100841.17
2023-01-13T20:54:51.166Z,100840.67
2023-01-13T20:57:21.799Z,100845.52
2023-01-13T20:59:52.425Z,100849.39
2023-01-13T21:02:23.086Z,100851.49
2023-01-13T21:04:53.711Z,100849.79
2023-01-13T21:07:24.354Z,100845.33
2023-01-13T21:09:55.061Z,100850.84
2023-01-13T21:12:25.641Z,100854.40
2023-01-13T21:14:56.351Z,100854.70
2023-01-13T21:17:27.099Z,100854.18
2023-01-13T21:19:57.253Z,100854.57
2023-01-13T21:22:27.902Z,100859.02
2023-01-13T21:24:58.518Z,100860.80
2023-01-13T21:27:29.178Z,100867.66
2023-01-13T21:29:59.799Z,100870.52
2023-01-13T21:32:30.481Z,100876.80
2023-01-13T21:35:01.081Z,100885.59
2023-01-13T21:37:31.748Z,100888.66
2023-01-13T21:40:02.467Z,100893.52
2023-01-13T21:42:33.046Z,100897.76
2023-01-13T21:45:03.719Z,100897.97
2023-01-13T21:47:34.394Z,100902.47
2023-01-13T21:50:05.098Z,100906.07
2023-01-13T21:52:35.670Z,100910.31
2023-01-13T21:55:06.344Z,100916.61
2023-01-13T21:57:36.978Z,100921.76
2023-01-13T22:00:07.715Z,100929.97
2023-01-13T22:02:38.405Z,100930.56
2023-01-13T22:05:08.984Z,100927.56
2023-01-13T22:07:39.590Z,100934.91
2023-01-13T22:10:10.368Z,100940.28
2023-01-13T22:12:40.910Z,100942.29
2023-01-13T22:15:11.607Z,100946.83
2023-01-13T22:17:42.202Z,100951.48
2023-01-13T22:20:12.805Z,100954.72
2023-01-13T22:22:43.446Z,100953.04
2023-01-13T22:25:14.140Z,100951.86
2023-01-13T22:27:44.811Z,100957.17
2023-01-13T22:30:15.366Z,100956.19
2023-01-13T22:32:45.772Z,100954.71
2023-01-13T22:35:16.377Z,100952.39
2023-01-13T22:37:47.031Z,100950.82
2023-01-13T22:40:17.663Z,100945.40
2023-01-13T22:42:48.357Z,100951.82
2023-01-13T22:45:18.964Z,100954.62
2023-01-13T22:47:49.668Z,100965.44
2023-01-13T22:50:20.349Z,100965.54
2023-01-13T22:52:50.923Z,100965.54
2023-01-13T22:55:21.594Z,100965.27
2023-01-13T22:57:52.210Z,100975.73
2023-01-13T23:00:22.983Z,100984.97
2023-01-13T23:02:53.538Z,100987.96
2023-01-13T23:05:24.151Z,100986.61
2023-01-13T23:07:54.870Z,100989.22
2023-01-13T23:10:25.448Z,100990.90
2023-01-13T23:12:56.139Z,100989.13
2023-01-13T23:15:26.744Z,100991.91
2023-01-13T23:17:57.436Z,100995.77
2023-01-13T23:20:28.055Z,100997.75
2023-01-13T23:22:58.768Z,100994.65
2023-01-13T23:25:29.372Z,101000.92
2023-01-13T23:28:00.139Z,101009.00
2023-01-13T23:30:30.684Z,101005.39
2023-01-13T23:33:01.385Z,101005.42
2023-01-13T23:35:32.027Z,101004.92
2023-01-13T23:38:02.649Z,100998.70
2023-01-13T23:40:33.293Z,100999.69
2023-01-13T23:43:03.967Z,101010.04
2023-01-13T23:45:34.604Z,101011.29
2023-01-13T23:48:05.317Z,101008.63
2023-01-13T23:50:35.911Z,101016.07
2023-01-13T23:53:06.667Z,101012.34
2023-01-13T23:55:37.226Z,101013.82
2023-01-13T23:58:07.873Z,101014.03
